sensor_id;sensor_type;location;lat;lon;timestamp;P1;durP1;ratioP1;P2;durP2;ratioP2
8626;SDS011;4351;51.422;6.794;2023-07-30T00:00:48;4.13;;;2.30;;
8626;SDS011;4351;51.422;6.794;2023-07-30T00:03:17;4.67;;;2.27;;
8626;SDS011;4351;51.422;6.794;2023-07-30T00:05:52;7.00;;;2.90;;
8626;SDS011;4351;51.422;6.794;2023-07-30T00:08:21;5.90;;;2.70;;
8626;SDS011;4351;51.422;6.794;2023-07-30T00:10:49;6.97;;;2.67;;
8626;SDS011;4351;51.422;6.794;2023-07-30T00:13:17;7.43;;;2.97;;
8626;SDS011;4351;51.422;6.794;2023-07-30T00:15:45;4.20;;;2.40;;
8626;SDS011;4351;51.422;6.794;2023-07-30T00:18:13;5.20;;;2.63;;
8626;SDS011;4351;51.422;6.794;2023-07-30T00:20:42;7.00;;;2.70;;
8626;SDS011;4351;51.422;6.794;2023-07-30T00:23:11;7.83;;;2.73;;
8626;SDS011;4351;51.422;6.794;2023-07-30T00:25:39;14.30;;;2.90;;
8626;SDS011;4351;51.422;6.794;2023-07-30T00:28:07;6.37;;;2.73;;
8626;SDS011;4351;51.422;6.794;2023-07-30T00:30:35;6.27;;;2.60;;
8626;SDS011;4351;51.422;6.794;2023-07-30T00:33:03;9.20;;;2.80;;
8626;SDS011;4351;51.422;6.794;2023-07-30T00:35:31;11.17;;;3.17;;
8626;SDS011;4351;51.422;6.794;2023-07-30T00:37:59;5.10;;;2.80;;
8626;SDS011;4351;51.422;6.794;2023-07-30T00:40:28;4.90;;;2.60;;
8626;SDS011;4351;51.422;6.794;2023-07-30T00:42:55;6.07;;;2.80;;
8626;SDS011;4351;51.422;6.794;2023-07-30T00:45:23;5.77;;;2.87;;
8626;SDS011;4351;51.422;6.794;2023-07-30T00:47:53;5.87;;;2.80;;
8626;SDS011;4351;51.422;6.794;2023-07-30T00:50:21;5.13;;;3.03;;
8626;SDS011;4351;51.422;6.794;2023-07-30T00:52:49;4.80;;;2.90;;
8626;SDS011;4351;51.422;6.794;2023-07-30T00:55:17;6.13;;;2.80;;
8626;SDS011;4351;51.422;6.794;2023-07-30T00:57:47;4.50;;;2.77;;
8626;SDS011;4351;51.422;6.794;2023-07-30T01:00:16;4.80;;;2.80;;
8626;SDS011;4351;51.422;6.794;2023-07-30T01:02:44;9.07;;;3.00;;
8626;SDS011;4351;51.422;6.794;2023-07-30T01:05:12;7.60;;;3.00;;
8626;SDS011;4351;51.422;6.794;2023-07-30T01:07:40;4.40;;;2.90;;
8626;SDS011;4351;51.422;6.794;2023-07-30T01:10:08;5.87;;;3.10;;
8626;SDS011;4351;51.422;6.794;2023-07-30T01:12:36;5.70;;;2.87;;
8626;SDS011;4351;51.422;6.794;2023-07-30T01:15:06;8.07;;;3.47;;
8626;SDS011;4351;51.422;6.794;2023-07-30T01:17:36;6.50;;;3.30;;
8626;SDS011;4351;51.422;6.794;2023-07-30T01:20:06;6.67;;;2.80;;
8626;SDS011;4351;51.422;6.794;2023-07-30T01:22:36;10.43;;;2.83;;
8626;SDS011;4351;51.422;6.794;2023-07-30T01:25:04;9.60;;;3.33;;
8626;SDS011;4351;51.422;6.794;2023-07-30T01:27:33;9.00;;;3.57;;
8626;SDS011;4351;51.422;6.794;2023-07-30T01:30:06;6.47;;;3.00;;
8626;SDS011;4351;51.422;6.794;2023-07-30T01:32:39;7.93;;;3.33;;
8626;SDS011;4351;51.422;6.794;2023-07-30T01:35:08;8.17;;;3.20;;
8626;SDS011;4351;51.422;6.794;2023-07-30T01:37:40;9.80;;;2.97;;
8626;SDS011;4351;51.422;6.794;2023-07-30T01:40:11;4.50;;;2.97;;
8626;SDS011;4351;51.422;6.794;2023-07-30T01:42:40;6.27;;;3.53;;
8626;SDS011;4351;51.422;6.794;2023-07-30T01:45:08;7.20;;;3.20;;
8626;SDS011;4351;51.422;6.794;2023-07-30T01:47:36;6.37;;;3.27;;
8626;SDS011;4351;51.422;6.794;2023-07-30T01:50:04;5.67;;;3.50;;
8626;SDS011;4351;51.422;6.794;2023-07-30T01:52:33;4.40;;;2.83;;
8626;SDS011;4351;51.422;6.794;2023-07-30T01:55:02;7.50;;;3.47;;
8626;SDS011;4351;51.422;6.794;2023-07-30T01:57:30;9.90;;;3.57;;
8626;SDS011;4351;51.422;6.794;2023-07-30T01:59:58;9.30;;;3.50;;
8626;SDS011;4351;51.422;6.794;2023-07-30T02:02:26;8.37;;;3.30;;
8626;SDS011;4351;51.422;6.794;2023-07-30T02:04:55;6.97;;;3.20;;
8626;SDS011;4351;51.422;6.794;2023-07-30T02:07:23;5.73;;;3.03;;
8626;SDS011;4351;51.422;6.794;2023-07-30T02:09:50;8.17;;;3.20;;
8626;SDS011;4351;51.422;6.794;2023-07-30T02:12:20;4.70;;;3.23;;
8626;SDS011;4351;51.422;6.794;2023-07-30T02:14:48;6.77;;;3.37;;
8626;SDS011;4351;51.422;6.794;2023-07-30T02:17:16;7.00;;;3.40;;
8626;SDS011;4351;51.422;6.794;2023-07-30T02:19:44;7.70;;;3.40;;
8626;SDS011;4351;51.422;6.794;2023-07-30T02:22:12;6.13;;;3.30;;
8626;SDS011;4351;51.422;6.794;2023-07-30T02:24:40;6.23;;;3.40;;
8626;SDS011;4351;51.422;6.794;2023-07-30T02:27:08;10.43;;;3.80;;
8626;SDS011;4351;51.422;6.794;2023-07-30T02:29:38;5.47;;;3.47;;
8626;SDS011;4351;51.422;6.794;2023-07-30T02:32:06;6.93;;;3.97;;
8626;SDS011;4351;51.422;6.794;2023-07-30T02:34:34;5.57;;;3.13;;
8626;SDS011;4351;51.422;6.794;2023-07-30T02:37:02;4.37;;;2.83;;
8626;SDS011;4351;51.422;6.794;2023-07-30T02:39:30;6.07;;;3.27;;
8626;SDS011;4351;51.422;6.794;2023-07-30T02:41:58;5.13;;;3.20;;
8626;SDS011;4351;51.422;6.794;2023-07-30T02:44:26;7.27;;;3.70;;
8626;SDS011;4351;51.422;6.794;2023-07-30T02:46:56;6.67;;;2.97;;
8626;SDS011;4351;51.422;6.794;2023-07-30T02:49:23;9.70;;;3.73;;
8626;SDS011;4351;51.422;6.794;2023-07-30T02:51:51;4.33;;;2.90;;
8626;SDS011;4351;51.422;6.794;2023-07-30T02:54:19;8.03;;;3.40;;
8626;SDS011;4351;51.422;6.794;2023-07-30T02:56:48;7.20;;;3.47;;
8626;SDS011;4351;51.422;6.794;2023-07-30T02:59:16;8.47;;;3.67;;
8626;SDS011;4351;51.422;6.794;2023-07-30T03:01:44;8.07;;;3.47;;
8626;SDS011;4351;51.422;6.794;2023-07-30T03:04:13;6.80;;;3.23;;
8626;SDS011;4351;51.422;6.794;2023-07-30T03:06:41;5.13;;;2.70;;
8626;SDS011;4351;51.422;6.794;2023-07-30T03:09:09;9.13;;;3.43;;
8626;SDS011;4351;51.422;6.794;2023-07-30T03:11:37;6.47;;;3.60;;
8626;SDS011;4351;51.422;6.794;2023-07-30T03:14:05;7.13;;;3.43;;
8626;SDS011;4351;51.422;6.794;2023-07-30T03:16:34;6.03;;;3.17;;
8626;SDS011;4351;51.422;6.794;2023-07-30T03:19:01;9.83;;;3.80;;
8626;SDS011;4351;51.422;6.794;2023-07-30T03:21:31;7.80;;;3.20;;
8626;SDS011;4351;51.422;6.794;2023-07-30T03:24:00;8.67;;;3.13;;
8626;SDS011;4351;51.422;6.794;2023-07-30T03:26:27;8.90;;;3.80;;
8626;SDS011;4351;51.422;6.794;2023-07-30T03:28:55;9.37;;;3.57;;
8626;SDS011;4351;51.422;6.794;2023-07-30T03:31:23;7.20;;;3.30;;
8626;SDS011;4351;51.422;6.794;2023-07-30T03:33:52;8.63;;;3.30;;
8626;SDS011;4351;51.422;6.794;2023-07-30T03:36:20;5.60;;;3.10;;
8626;SDS011;4351;51.422;6.794;2023-07-30T03:38:49;6.87;;;2.97;;
8626;SDS011;4351;51.422;6.794;2023-07-30T03:41:17;6.73;;;3.50;;
8626;SDS011;4351;51.422;6.794;2023-07-30T03:43:45;9.50;;;3.33;;
8626;SDS011;4351;51.422;6.794;2023-07-30T03:46:13;9.67;;;3.50;;
8626;SDS011;4351;51.422;6.794;2023-07-30T03:48:41;8.03;;;3.67;;
8626;SDS011;4351;51.422;6.794;2023-07-30T03:51:09;7.03;;;3.57;;
8626;SDS011;4351;51.422;6.794;2023-07-30T03:53:37;6.13;;;3.83;;
8626;SDS011;4351;51.422;6.794;2023-07-30T03:56:06;7.27;;;3.60;;
8626;SDS011;4351;51.422;6.794;2023-07-30T03:58:34;6.67;;;4.00;;
8626;SDS011;4351;51.422;6.794;2023-07-30T04:01:02;5.73;;;3.53;;
8626;SDS011;4351;51.422;6.794;2023-07-30T04:03:30;8.20;;;3.73;;
8626;SDS011;4351;51.422;6.794;2023-07-30T04:05:58;9.80;;;3.50;;
8626;SDS011;4351;51.422;6.794;2023-07-30T04:08:26;8.53;;;4.17;;
8626;SDS011;4351;51.422;6.794;2023-07-30T04:10:54;7.70;;;4.13;;
8626;SDS011;4351;51.422;6.794;2023-07-30T04:13:23;11.17;;;4.10;;
8626;SDS011;4351;51.422;6.794;2023-07-30T04:15:51;10.00;;;4.63;;
8626;SDS011;4351;51.422;6.794;2023-07-30T04:18:19;10.30;;;3.87;;
8626;SDS011;4351;51.422;6.794;2023-07-30T04:20:49;7.43;;;4.20;;
8626;SDS011;4351;51.422;6.794;2023-07-30T04:23:16;10.23;;;3.63;;
8626;SDS011;4351;51.422;6.794;2023-07-30T04:25:44;9.47;;;3.77;;
8626;SDS011;4351;51.422;6.794;2023-07-30T04:28:13;7.63;;;3.87;;
8626;SDS011;4351;51.422;6.794;2023-07-30T04:30:42;5.60;;;2.93;;
8626;SDS011;4351;51.422;6.794;2023-07-30T04:33:10;10.77;;;3.63;;
8626;SDS011;4351;51.422;6.794;2023-07-30T04:35:39;8.90;;;3.70;;
8626;SDS011;4351;51.422;6.794;2023-07-30T04:38:07;9.67;;;3.80;;
8626;SDS011;4351;51.422;6.794;2023-07-30T04:40:36;10.07;;;3.40;;
8626;SDS011;4351;51.422;6.794;2023-07-30T04:43:04;7.80;;;3.43;;
8626;SDS011;4351;51.422;6.794;2023-07-30T04:45:32;9.63;;;3.30;;
8626;SDS011;4351;51.422;6.794;2023-07-30T04:48:02;11.77;;;3.23;;
8626;SDS011;4351;51.422;6.794;2023-07-30T04:50:30;9.87;;;3.53;;
8626;SDS011;4351;51.422;6.794;2023-07-30T04:52:58;13.80;;;3.63;;
8626;SDS011;4351;51.422;6.794;2023-07-30T04:55:26;9.30;;;3.00;;
8626;SDS011;4351;51.422;6.794;2023-07-30T04:57:55;8.53;;;2.90;;
8626;SDS011;4351;51.422;6.794;2023-07-30T05:00:23;9.03;;;3.07;;
8626;SDS011;4351;51.422;6.794;2023-07-30T05:02:51;8.33;;;3.73;;
8626;SDS011;4351;51.422;6.794;2023-07-30T05:05:20;6.27;;;2.67;;
8626;SDS011;4351;51.422;6.794;2023-07-30T05:07:48;5.07;;;3.03;;
8626;SDS011;4351;51.422;6.794;2023-07-30T05:10:16;9.93;;;3.20;;
8626;SDS011;4351;51.422;6.794;2023-07-30T05:12:44;11.50;;;3.17;;
8626;SDS011;4351;51.422;6.794;2023-07-30T05:15:12;9.00;;;3.30;;
8626;SDS011;4351;51.422;6.794;2023-07-30T05:17:40;10.20;;;3.50;;
8626;SDS011;4351;51.422;6.794;2023-07-30T05:20:08;5.93;;;3.13;;
8626;SDS011;4351;51.422;6.794;2023-07-30T05:22:38;8.10;;;3.40;;
8626;SDS011;4351;51.422;6.794;2023-07-30T05:25:06;7.93;;;3.30;;
8626;SDS011;4351;51.422;6.794;2023-07-30T05:27:34;11.37;;;3.30;;
8626;SDS011;4351;51.422;6.794;2023-07-30T05:30:02;9.47;;;3.37;;
8626;SDS011;4351;51.422;6.794;2023-07-30T05:32:31;10.73;;;3.10;;
8626;SDS011;4351;51.422;6.794;2023-07-30T05:34:59;12.53;;;3.73;;
8626;SDS011;4351;51.422;6.794;2023-07-30T05:37:27;11.63;;;3.50;;
8626;SDS011;4351;51.422;6.794;2023-07-30T05:39:56;15.13;;;3.40;;
8626;SDS011;4351;51.422;6.794;2023-07-30T05:42:24;14.40;;;3.23;;
8626;SDS011;4351;51.422;6.794;2023-07-30T05:44:52;9.83;;;3.77;;
8626;SDS011;4351;51.422;6.794;2023-07-30T05:47:20;11.53;;;3.17;;
8626;SDS011;4351;51.422;6.794;2023-07-30T05:49:48;10.40;;;3.40;;
8626;SDS011;4351;51.422;6.794;2023-07-30T05:52:16;11.57;;;3.33;;
8626;SDS011;4351;51.422;6.794;2023-07-30T05:54:43;8.47;;;3.30;;
8626;SDS011;4351;51.422;6.794;2023-07-30T05:57:13;9.00;;;3.40;;
8626;SDS011;4351;51.422;6.794;2023-07-30T05:59:41;11.20;;;3.57;;
8626;SDS011;4351;51.422;6.794;2023-07-30T06:02:08;9.97;;;3.47;;
8626;SDS011;4351;51.422;6.794;2023-07-30T06:04:36;7.17;;;3.17;;
8626;SDS011;4351;51.422;6.794;2023-07-30T06:07:04;9.57;;;3.30;;
8626;SDS011;4351;51.422;6.794;2023-07-30T06:09:32;8.40;;;2.90;;
8626;SDS011;4351;51.422;6.794;2023-07-30T06:12:00;8.73;;;2.57;;
8626;SDS011;4351;51.422;6.794;2023-07-30T06:14:29;7.60;;;2.80;;
8626;SDS011;4351;51.422;6.794;2023-07-30T06:16:57;9.30;;;2.53;;
8626;SDS011;4351;51.422;6.794;2023-07-30T06:19:25;7.17;;;2.50;;
8626;SDS011;4351;51.422;6.794;2023-07-30T06:21:54;6.47;;;2.27;;
8626;SDS011;4351;51.422;6.794;2023-07-30T06:24:22;10.40;;;2.40;;
8626;SDS011;4351;51.422;6.794;2023-07-30T06:26:50;11.67;;;2.83;;
8626;SDS011;4351;51.422;6.794;2023-07-30T06:29:18;7.50;;;2.33;;
8626;SDS011;4351;51.422;6.794;2023-07-30T06:31:48;6.53;;;2.40;;
8626;SDS011;4351;51.422;6.794;2023-07-30T06:34:15;8.60;;;2.50;;
8626;SDS011;4351;51.422;6.794;2023-07-30T06:36:44;10.00;;;2.50;;
8626;SDS011;4351;51.422;6.794;2023-07-30T06:39:11;7.30;;;2.63;;
8626;SDS011;4351;51.422;6.794;2023-07-30T06:41:39;7.03;;;2.27;;
8626;SDS011;4351;51.422;6.794;2023-07-30T06:44:08;7.47;;;2.17;;
8626;SDS011;4351;51.422;6.794;2023-07-30T06:46:36;8.17;;;2.20;;
8626;SDS011;4351;51.422;6.794;2023-07-30T06:49:05;6.67;;;1.90;;
8626;SDS011;4351;51.422;6.794;2023-07-30T06:51:33;8.80;;;2.17;;
8626;SDS011;4351;51.422;6.794;2023-07-30T06:54:02;7.67;;;2.03;;
8626;SDS011;4351;51.422;6.794;2023-07-30T06:56:31;5.77;;;2.10;;
8626;SDS011;4351;51.422;6.794;2023-07-30T06:58:59;7.47;;;2.50;;
8626;SDS011;4351;51.422;6.794;2023-07-30T07:01:27;11.53;;;2.47;;
8626;SDS011;4351;51.422;6.794;2023-07-30T07:03:55;7.70;;;2.67;;
8626;SDS011;4351;51.422;6.794;2023-07-30T07:06:25;6.83;;;2.20;;
8626;SDS011;4351;51.422;6.794;2023-07-30T07:08:52;9.40;;;2.47;;
8626;SDS011;4351;51.422;6.794;2023-07-30T07:11:21;9.73;;;2.60;;
8626;SDS011;4351;51.422;6.794;2023-07-30T07:13:49;11.43;;;2.70;;
8626;SDS011;4351;51.422;6.794;2023-07-30T07:16:17;10.90;;;2.80;;
8626;SDS011;4351;51.422;6.794;2023-07-30T07:18:45;8.77;;;2.70;;
8626;SDS011;4351;51.422;6.794;2023-07-30T07:21:15;7.67;;;2.40;;
8626;SDS011;4351;51.422;6.794;2023-07-30T07:23:44;5.33;;;2.00;;
8626;SDS011;4351;51.422;6.794;2023-07-30T07:26:12;11.73;;;3.20;;
8626;SDS011;4351;51.422;6.794;2023-07-30T07:28:40;8.77;;;2.63;;
8626;SDS011;4351;51.422;6.794;2023-07-30T07:31:08;7.87;;;2.43;;
8626;SDS011;4351;51.422;6.794;2023-07-30T07:33:36;7.13;;;2.77;;
8626;SDS011;4351;51.422;6.794;2023-07-30T07:36:04;8.23;;;2.70;;
8626;SDS011;4351;51.422;6.794;2023-07-30T07:38:33;8.00;;;2.30;;
8626;SDS011;4351;51.422;6.794;2023-07-30T07:41:02;9.77;;;3.10;;
8626;SDS011;4351;51.422;6.794;2023-07-30T07:43:30;10.63;;;2.60;;
8626;SDS011;4351;51.422;6.794;2023-07-30T07:45:58;6.43;;;2.30;;
8626;SDS011;4351;51.422;6.794;2023-07-30T07:48:26;13.67;;;3.17;;
8626;SDS011;4351;51.422;6.794;2023-07-30T07:50:54;9.03;;;2.80;;
8626;SDS011;4351;51.422;6.794;2023-07-30T07:53:21;9.27;;;3.00;;
8626;SDS011;4351;51.422;6.794;2023-07-30T07:55:49;9.50;;;2.70;;
8626;SDS011;4351;51.422;6.794;2023-07-30T07:58:18;10.00;;;2.57;;
8626;SDS011;4351;51.422;6.794;2023-07-30T08:00:46;9.70;;;3.30;;
8626;SDS011;4351;51.422;6.794;2023-07-30T08:03:14;7.07;;;3.10;;
8626;SDS011;4351;51.422;6.794;2023-07-30T08:05:42;13.17;;;3.17;;
8626;SDS011;4351;51.422;6.794;2023-07-30T08:08:10;11.93;;;3.63;;
8626;SDS011;4351;51.422;6.794;2023-07-30T08:10:38;7.80;;;2.93;;
8626;SDS011;4351;51.422;6.794;2023-07-30T08:13:09;12.53;;;3.13;;
8626;SDS011;4351;51.422;6.794;2023-07-30T08:15:38;11.67;;;3.27;;
8626;SDS011;4351;51.422;6.794;2023-07-30T08:18:06;13.67;;;3.60;;
8626;SDS011;4351;51.422;6.794;2023-07-30T08:20:34;8.97;;;3.03;;
8626;SDS011;4351;51.422;6.794;2023-07-30T08:23:02;8.87;;;2.90;;
8626;SDS011;4351;51.422;6.794;2023-07-30T08:25:30;21.13;;;3.77;;
8626;SDS011;4351;51.422;6.794;2023-07-30T08:27:58;11.67;;;3.50;;
8626;SDS011;4351;51.422;6.794;2023-07-30T08:30:26;12.10;;;3.00;;
8626;SDS011;4351;51.422;6.794;2023-07-30T08:32:55;9.47;;;2.97;;
8626;SDS011;4351;51.422;6.794;2023-07-30T08:35:23;10.97;;;3.23;;
8626;SDS011;4351;51.422;6.794;2023-07-30T08:37:53;14.73;;;3.33;;
8626;SDS011;4351;51.422;6.794;2023-07-30T08:40:21;9.80;;;2.87;;
8626;SDS011;4351;51.422;6.794;2023-07-30T08:42:50;11.80;;;3.37;;
8626;SDS011;4351;51.422;6.794;2023-07-30T08:45:18;14.37;;;3.47;;
8626;SDS011;4351;51.422;6.794;2023-07-30T08:47:47;12.20;;;3.00;;
8626;SDS011;4351;51.422;6.794;2023-07-30T08:50:16;9.40;;;3.03;;
8626;SDS011;4351;51.422;6.794;2023-07-30T08:52:44;11.37;;;3.30;;
8626;SDS011;4351;51.422;6.794;2023-07-30T08:55:14;10.17;;;3.03;;
8626;SDS011;4351;51.422;6.794;2023-07-30T08:57:44;11.40;;;3.30;;
8626;SDS011;4351;51.422;6.794;2023-07-30T09:00:14;12.80;;;2.97;;
8626;SDS011;4351;51.422;6.794;2023-07-30T09:02:46;14.67;;;3.20;;
8626;SDS011;4351;51.422;6.794;2023-07-30T09:05:17;15.67;;;3.20;;
8626;SDS011;4351;51.422;6.794;2023-07-30T09:07:48;11.37;;;3.00;;
8626;SDS011;4351;51.422;6.794;2023-07-30T09:10:17;10.97;;;3.00;;
8626;SDS011;4351;51.422;6.794;2023-07-30T09:12:45;14.80;;;3.90;;
8626;SDS011;4351;51.422;6.794;2023-07-30T09:15:14;10.27;;;3.30;;
8626;SDS011;4351;51.422;6.794;2023-07-30T09:17:42;11.00;;;2.80;;
8626;SDS011;4351;51.422;6.794;2023-07-30T09:20:10;10.40;;;2.77;;
8626;SDS011;4351;51.422;6.794;2023-07-30T09:22:40;14.13;;;3.07;;
8626;SDS011;4351;51.422;6.794;2023-07-30T09:25:07;10.83;;;2.67;;
8626;SDS011;4351;51.422;6.794;2023-07-30T09:27:36;9.37;;;2.50;;
8626;SDS011;4351;51.422;6.794;2023-07-30T09:30:04;11.40;;;3.07;;
8626;SDS011;4351;51.422;6.794;2023-07-30T09:32:33;13.63;;;2.80;;
8626;SDS011;4351;51.422;6.794;2023-07-30T09:35:05;9.13;;;2.37;;
8626;SDS011;4351;51.422;6.794;2023-07-30T09:37:36;11.53;;;3.07;;
8626;SDS011;4351;51.422;6.794;2023-07-30T09:40:07;11.77;;;2.57;;
8626;SDS011;4351;51.422;6.794;2023-07-30T09:42:37;9.63;;;2.60;;
8626;SDS011;4351;51.422;6.794;2023-07-30T09:45:06;8.30;;;2.40;;
8626;SDS011;4351;51.422;6.794;2023-07-30T09:47:36;8.97;;;2.40;;
8626;SDS011;4351;51.422;6.794;2023-07-30T09:50:05;10.53;;;2.27;;
8626;SDS011;4351;51.422;6.794;2023-07-30T09:52:33;8.87;;;2.50;;
8626;SDS011;4351;51.422;6.794;2023-07-30T09:55:01;10.10;;;2.33;;
8626;SDS011;4351;51.422;6.794;2023-07-30T09:57:32;10.50;;;2.70;;
8626;SDS011;4351;51.422;6.794;2023-07-30T10:00:01;11.43;;;2.50;;
8626;SDS011;4351;51.422;6.794;2023-07-30T10:02:29;9.57;;;2.50;;
8626;SDS011;4351;51.422;6.794;2023-07-30T10:04:59;10.47;;;2.40;;
8626;SDS011;4351;51.422;6.794;2023-07-30T10:07:29;6.53;;;2.03;;
8626;SDS011;4351;51.422;6.794;2023-07-30T10:09:58;9.97;;;2.73;;
8626;SDS011;4351;51.422;6.794;2023-07-30T10:12:29;8.93;;;2.63;;
8626;SDS011;4351;51.422;6.794;2023-07-30T10:15:01;7.70;;;2.27;;
8626;SDS011;4351;51.422;6.794;2023-07-30T10:17:29;9.53;;;2.47;;
8626;SDS011;4351;51.422;6.794;2023-07-30T10:22:47;8.37;;;2.30;;
8626;SDS011;4351;51.422;6.794;2023-07-30T10:25:20;7.03;;;2.30;;
8626;SDS011;4351;51.422;6.794;2023-07-30T10:27:50;6.70;;;2.23;;
8626;SDS011;4351;51.422;6.794;2023-07-30T10:30:19;5.93;;;1.90;;
8626;SDS011;4351;51.422;6.794;2023-07-30T10:33:03;7.47;;;1.90;;
8626;SDS011;4351;51.422;6.794;2023-07-30T10:35:38;6.40;;;2.07;;
8626;SDS011;4351;51.422;6.794;2023-07-30T10:38:14;9.37;;;2.30;;
8626;SDS011;4351;51.422;6.794;2023-07-30T10:43:31;6.63;;;1.70;;
8626;SDS011;4351;51.422;6.794;2023-07-30T10:46:02;6.00;;;2.13;;
8626;SDS011;4351;51.422;6.794;2023-07-30T10:48:30;5.17;;;1.60;;
8626;SDS011;4351;51.422;6.794;2023-07-30T10:51:00;6.57;;;1.90;;
8626;SDS011;4351;51.422;6.794;2023-07-30T10:53:29;5.20;;;1.50;;
8626;SDS011;4351;51.422;6.794;2023-07-30T10:55:57;7.07;;;2.00;;
8626;SDS011;4351;51.422;6.794;2023-07-30T10:58:28;7.30;;;1.70;;
8626;SDS011;4351;51.422;6.794;2023-07-30T11:00:58;9.67;;;1.93;;
8626;SDS011;4351;51.422;6.794;2023-07-30T11:03:26;7.20;;;1.80;;
8626;SDS011;4351;51.422;6.794;2023-07-30T11:05:55;6.20;;;1.80;;
8626;SDS011;4351;51.422;6.794;2023-07-30T11:08:31;5.80;;;1.50;;
8626;SDS011;4351;51.422;6.794;2023-07-30T11:11:00;10.57;;;2.13;;
8626;SDS011;4351;51.422;6.794;2023-07-30T11:13:28;6.90;;;1.80;;
8626;SDS011;4351;51.422;6.794;2023-07-30T11:15:58;5.80;;;1.80;;
8626;SDS011;4351;51.422;6.794;2023-07-30T11:18:26;8.50;;;1.77;;
8626;SDS011;4351;51.422;6.794;2023-07-30T11:21:02;5.43;;;1.63;;
8626;SDS011;4351;51.422;6.794;2023-07-30T11:23:32;7.33;;;2.07;;
8626;SDS011;4351;51.422;6.794;2023-07-30T11:26:01;8.17;;;2.07;;
8626;SDS011;4351;51.422;6.794;2023-07-30T11:28:30;9.20;;;1.97;;
8626;SDS011;4351;51.422;6.794;2023-07-30T11:31:05;5.20;;;1.60;;
8626;SDS011;4351;51.422;6.794;2023-07-30T11:33:35;6.43;;;1.90;;
8626;SDS011;4351;51.422;6.794;2023-07-30T11:36:05;4.97;;;1.70;;
8626;SDS011;4351;51.422;6.794;2023-07-30T11:38:35;10.50;;;2.10;;
8626;SDS011;4351;51.422;6.794;2023-07-30T11:41:05;9.00;;;1.90;;
8626;SDS011;4351;51.422;6.794;2023-07-30T11:43:39;7.37;;;1.90;;
8626;SDS011;4351;51.422;6.794;2023-07-30T11:46:12;7.90;;;1.87;;
8626;SDS011;4351;51.422;6.794;2023-07-30T11:48:42;6.70;;;1.63;;
8626;SDS011;4351;51.422;6.794;2023-07-30T11:51:21;8.07;;;2.07;;
8626;SDS011;4351;51.422;6.794;2023-07-30T11:53:51;8.13;;;1.57;;
8626;SDS011;4351;51.422;6.794;2023-07-30T11:56:20;10.27;;;2.03;;
8626;SDS011;4351;51.422;6.794;2023-07-30T11:58:51;7.93;;;1.80;;
8626;SDS011;4351;51.422;6.794;2023-07-30T12:01:24;6.77;;;1.73;;
8626;SDS011;4351;51.422;6.794;2023-07-30T12:03:54;5.27;;;1.57;;
8626;SDS011;4351;51.422;6.794;2023-07-30T12:06:23;6.70;;;1.30;;
8626;SDS011;4351;51.422;6.794;2023-07-30T12:08:51;4.97;;;1.77;;
8626;SDS011;4351;51.422;6.794;2023-07-30T12:11:19;5.10;;;1.73;;
8626;SDS011;4351;51.422;6.794;2023-07-30T12:13:47;4.37;;;1.60;;
8626;SDS011;4351;51.422;6.794;2023-07-30T12:16:17;3.73;;;1.30;;
8626;SDS011;4351;51.422;6.794;2023-07-30T12:18:49;5.10;;;1.67;;
8626;SDS011;4351;51.422;6.794;2023-07-30T12:21:17;5.47;;;1.53;;
8626;SDS011;4351;51.422;6.794;2023-07-30T12:23:44;5.50;;;1.53;;
8626;SDS011;4351;51.422;6.794;2023-07-30T12:26:14;4.90;;;1.23;;
8626;SDS011;4351;51.422;6.794;2023-07-30T12:28:42;5.93;;;1.30;;
8626;SDS011;4351;51.422;6.794;2023-07-30T12:31:09;5.60;;;1.33;;
8626;SDS011;4351;51.422;6.794;2023-07-30T12:33:37;6.13;;;1.40;;
8626;SDS011;4351;51.422;6.794;2023-07-30T12:36:07;5.80;;;1.70;;
8626;SDS011;4351;51.422;6.794;2023-07-30T12:38:35;6.47;;;2.10;;
8626;SDS011;4351;51.422;6.794;2023-07-30T12:41:03;5.67;;;2.43;;
8626;SDS011;4351;51.422;6.794;2023-07-30T12:43:31;9.00;;;3.00;;
8626;SDS011;4351;51.422;6.794;2023-07-30T12:45:58;6.70;;;2.97;;
8626;SDS011;4351;51.422;6.794;2023-07-30T12:48:27;9.93;;;3.87;;
8626;SDS011;4351;51.422;6.794;2023-07-30T12:50:56;9.33;;;2.73;;
8626;SDS011;4351;51.422;6.794;2023-07-30T12:53:25;7.37;;;1.83;;
8626;SDS011;4351;51.422;6.794;2023-07-30T12:55:53;3.63;;;1.10;;
8626;SDS011;4351;51.422;6.794;2023-07-30T12:58:21;6.13;;;1.10;;
8626;SDS011;4351;51.422;6.794;2023-07-30T13:00:52;4.67;;;1.23;;
8626;SDS011;4351;51.422;6.794;2023-07-30T13:03:20;4.23;;;1.40;;
8626;SDS011;4351;51.422;6.794;2023-07-30T13:05:49;2.60;;;1.20;;
8626;SDS011;4351;51.422;6.794;2023-07-30T13:08:20;9.00;;;1.50;;
8626;SDS011;4351;51.422;6.794;2023-07-30T13:10:51;4.73;;;1.20;;
8626;SDS011;4351;51.422;6.794;2023-07-30T13:13:19;5.60;;;1.43;;
8626;SDS011;4351;51.422;6.794;2023-07-30T13:15:47;3.17;;;1.17;;
8626;SDS011;4351;51.422;6.794;2023-07-30T13:18:16;4.13;;;1.17;;
8626;SDS011;4351;51.422;6.794;2023-07-30T13:20:45;5.17;;;1.40;;
8626;SDS011;4351;51.422;6.794;2023-07-30T13:23:14;3.97;;;1.20;;
8626;SDS011;4351;51.422;6.794;2023-07-30T13:25:42;3.37;;;1.23;;
8626;SDS011;4351;51.422;6.794;2023-07-30T13:28:12;3.50;;;1.30;;
8626;SDS011;4351;51.422;6.794;2023-07-30T13:30:40;5.27;;;1.63;;
8626;SDS011;4351;51.422;6.794;2023-07-30T13:33:08;5.50;;;1.37;;
8626;SDS011;4351;51.422;6.794;2023-07-30T13:35:36;4.47;;;1.30;;
8626;SDS011;4351;51.422;6.794;2023-07-30T13:38:04;5.30;;;1.50;;
8626;SDS011;4351;51.422;6.794;2023-07-30T13:40:32;4.63;;;1.20;;
8626;SDS011;4351;51.422;6.794;2023-07-30T13:43:00;3.70;;;1.40;;
8626;SDS011;4351;51.422;6.794;2023-07-30T13:45:29;7.03;;;1.60;;
8626;SDS011;4351;51.422;6.794;2023-07-30T13:47:56;4.80;;;1.50;;
8626;SDS011;4351;51.422;6.794;2023-07-30T13:50:24;5.70;;;1.40;;
8626;SDS011;4351;51.422;6.794;2023-07-30T13:52:52;4.43;;;1.60;;
8626;SDS011;4351;51.422;6.794;2023-07-30T13:55:20;5.00;;;1.40;;
8626;SDS011;4351;51.422;6.794;2023-07-30T13:57:48;5.00;;;1.43;;
8626;SDS011;4351;51.422;6.794;2023-07-30T14:00:16;5.93;;;1.40;;
8626;SDS011;4351;51.422;6.794;2023-07-30T14:02:46;5.80;;;1.80;;
8626;SDS011;4351;51.422;6.794;2023-07-30T14:05:15;4.87;;;1.60;;
8626;SDS011;4351;51.422;6.794;2023-07-30T14:07:44;3.67;;;1.60;;
8626;SDS011;4351;51.422;6.794;2023-07-30T14:10:18;5.03;;;1.40;;
8626;SDS011;4351;51.422;6.794;2023-07-30T14:13:24;6.00;;;1.63;;
8626;SDS011;4351;51.422;6.794;2023-07-30T14:15:54;3.60;;;1.20;;
8626;SDS011;4351;51.422;6.794;2023-07-30T14:18:24;5.00;;;1.50;;
8626;SDS011;4351;51.422;6.794;2023-07-30T14:20:52;6.80;;;2.10;;
8626;SDS011;4351;51.422;6.794;2023-07-30T14:23:20;7.90;;;1.70;;
8626;SDS011;4351;51.422;6.794;2023-07-30T14:25:48;3.77;;;1.60;;
8626;SDS011;4351;51.422;6.794;2023-07-30T14:28:16;6.57;;;1.60;;
8626;SDS011;4351;51.422;6.794;2023-07-30T14:30:44;3.67;;;1.50;;
8626;SDS011;4351;51.422;6.794;2023-07-30T14:33:12;4.73;;;1.60;;
8626;SDS011;4351;51.422;6.794;2023-07-30T14:35:41;5.30;;;1.50;;
8626;SDS011;4351;51.422;6.794;2023-07-30T14:38:09;5.90;;;1.73;;
8626;SDS011;4351;51.422;6.794;2023-07-30T14:40:39;6.17;;;1.80;;
8626;SDS011;4351;51.422;6.794;2023-07-30T14:43:06;2.83;;;1.33;;
8626;SDS011;4351;51.422;6.794;2023-07-30T14:45:34;6.30;;;1.60;;
8626;SDS011;4351;51.422;6.794;2023-07-30T14:48:03;4.77;;;1.53;;
8626;SDS011;4351;51.422;6.794;2023-07-30T14:50:32;5.73;;;1.53;;
8626;SDS011;4351;51.422;6.794;2023-07-30T14:53:01;7.63;;;1.50;;
8626;SDS011;4351;51.422;6.794;2023-07-30T14:55:29;5.77;;;1.70;;
8626;SDS011;4351;51.422;6.794;2023-07-30T14:57:57;5.50;;;1.57;;
8626;SDS011;4351;51.422;6.794;2023-07-30T15:00:26;7.37;;;1.60;;
8626;SDS011;4351;51.422;6.794;2023-07-30T15:02:54;5.73;;;1.30;;
8626;SDS011;4351;51.422;6.794;2023-07-30T15:05:23;6.53;;;1.50;;
8626;SDS011;4351;51.422;6.794;2023-07-30T15:07:51;3.53;;;1.27;;
8626;SDS011;4351;51.422;6.794;2023-07-30T15:10:20;6.70;;;1.47;;
8626;SDS011;4351;51.422;6.794;2023-07-30T15:12:48;4.10;;;1.27;;
8626;SDS011;4351;51.422;6.794;2023-07-30T15:15:15;4.63;;;1.30;;
8626;SDS011;4351;51.422;6.794;2023-07-30T15:17:43;5.70;;;1.30;;
8626;SDS011;4351;51.422;6.794;2023-07-30T15:20:12;4.13;;;1.50;;
8626;SDS011;4351;51.422;6.794;2023-07-30T15:22:39;6.47;;;1.30;;
8626;SDS011;4351;51.422;6.794;2023-07-30T15:25:07;4.13;;;1.40;;
8626;SDS011;4351;51.422;6.794;2023-07-30T15:27:37;8.73;;;1.40;;